sensor_id;sensor_type;location;lat;lon;timestamp;noise_LAeq;noise_LA_min;noise_LA_max;noise_LA01;noise_LA95
81493;Laerm;70900;51.798;10.954;2023-06-26T00:02:23;41.76;32.74;59.18;;
81493;Laerm;70900;51.798;10.954;2023-06-26T00:04:49;39.19;34.82;44.89;;
81493;Laerm;70900;51.798;10.954;2023-06-26T00:07:18;38.95;33.40;49.54;;
81493;Laerm;70900;51.798;10.954;2023-06-26T00:09:43;40.88;34.27;48.32;;
81493;Laerm;70900;51.798;10.954;2023-06-26T00:12:09;37.25;32.52;43.35;;
81493;Laerm;70900;51.798;10.954;2023-06-26T00:14:34;35.62;31.61;44.47;;
81493;Laerm;70900;51.798;10.954;2023-06-26T00:17:00;36.90;31.29;44.16;;
81493;Laerm;70900;51.798;10.954;2023-06-26T00:19:25;37.78;31.04;44.13;;
81493;Laerm;70900;51.798;10.954;2023-06-26T00:21:50;36.45;29.62;46.10;;
81493;Laerm;70900;51.798;10.954;2023-06-26T00:24:17;39.03;31.79;54.28;;
81493;Laerm;70900;51.798;10.954;2023-06-26T00:26:43;38.24;31.63;47.21;;
81493;Laerm;70900;51.798;10.954;2023-06-26T00:29:08;38.04;32.14;45.27;;
81493;Laerm;70900;51.798;10.954;2023-06-26T00:31:34;37.46;32.14;51.69;;
81493;Laerm;70900;51.798;10.954;2023-06-26T00:34:00;39.48;35.38;45.56;;
81493;Laerm;70900;51.798;10.954;2023-06-26T00:36:26;37.95;31.55;43.60;;
81493;Laerm;70900;51.798;10.954;2023-06-26T00:38:51;38.44;31.05;47.16;;
81493;Laerm;70900;51.798;10.954;2023-06-26T00:41:17;36.73;33.00;44.09;;
81493;Laerm;70900;51.798;10.954;2023-06-26T00:43:42;38.76;32.25;45.45;;
81493;Laerm;70900;51.798;10.954;2023-06-26T00:46:09;39.39;33.49;47.05;;
81493;Laerm;70900;51.798;10.954;2023-06-26T00:48:34;37.06;32.46;42.07;;
81493;Laerm;70900;51.798;10.954;2023-06-26T00:51:00;36.84;31.71;43.98;;
81493;Laerm;70900;51.798;10.954;2023-06-26T00:53:25;39.70;33.12;47.51;;
81493;Laerm;70900;51.798;10.954;2023-06-26T00:55:51;40.24;34.10;50.45;;
81493;Laerm;70900;51.798;10.954;2023-06-26T00:58:16;40.16;33.30;46.92;;
81493;Laerm;70900;51.798;10.954;2023-06-26T01:00:42;40.94;34.53;48.57;;
81493;Laerm;70900;51.798;10.954;2023-06-26T01:03:10;38.22;32.64;44.26;;
81493;Laerm;70900;51.798;10.954;2023-06-26T01:05:36;39.77;34.32;52.29;;
81493;Laerm;70900;51.798;10.954;2023-06-26T01:08:01;39.03;33.53;45.51;;
81493;Laerm;70900;51.798;10.954;2023-06-26T01:10:27;38.09;33.07;50.16;;
81493;Laerm;70900;51.798;10.954;2023-06-26T01:12:55;37.98;33.16;44.62;;
81493;Laerm;70900;51.798;10.954;2023-06-26T01:15:22;39.58;34.51;45.06;;
81493;Laerm;70900;51.798;10.954;2023-06-26T01:17:47;37.10;32.63;45.04;;
81493;Laerm;70900;51.798;10.954;2023-06-26T01:20:13;38.37;33.27;45.18;;
81493;Laerm;70900;51.798;10.954;2023-06-26T01:22:47;38.95;32.07;44.47;;
81493;Laerm;70900;51.798;10.954;2023-06-26T01:28:09;39.18;34.29;45.07;;
81493;Laerm;70900;51.798;10.954;2023-06-26T01:30:42;38.75;34.97;44.62;;
81493;Laerm;70900;51.798;10.954;2023-06-26T01:33:08;38.53;33.83;52.28;;
81493;Laerm;70900;51.798;10.954;2023-06-26T01:35:34;39.40;33.64;45.04;;
81493;Laerm;70900;51.798;10.954;2023-06-26T01:38:18;38.99;32.67;43.93;;
81493;Laerm;70900;51.798;10.954;2023-06-26T01:40:44;37.81;30.74;50.71;;
81493;Laerm;70900;51.798;10.954;2023-06-26T01:43:21;42.76;32.62;57.01;;
81493;Laerm;70900;51.798;10.954;2023-06-26T01:45:50;45.69;32.99;59.26;;
81493;Laerm;70900;51.798;10.954;2023-06-26T01:48:16;48.09;34.18;58.79;;
81493;Laerm;70900;51.798;10.954;2023-06-26T01:50:45;48.17;32.47;62.71;;
81493;Laerm;70900;51.798;10.954;2023-06-26T01:53:11;51.77;33.92;67.64;;
81493;Laerm;70900;51.798;10.954;2023-06-26T01:55:59;54.89;33.12;69.27;;
81493;Laerm;70900;51.798;10.954;2023-06-26T01:58:26;46.91;34.30;58.75;;
81493;Laerm;70900;51.798;10.954;2023-06-26T02:00:53;46.85;33.83;58.88;;
81493;Laerm;70900;51.798;10.954;2023-06-26T02:03:18;46.98;34.59;57.27;;
81493;Laerm;70900;51.798;10.954;2023-06-26T02:05:45;47.28;35.57;57.84;;
81493;Laerm;70900;51.798;10.954;2023-06-26T02:08:13;47.14;34.84;58.10;;
81493;Laerm;70900;51.798;10.954;2023-06-26T02:10:39;48.00;36.49;61.74;;
81493;Laerm;70900;51.798;10.954;2023-06-26T02:13:04;50.77;37.66;67.37;;
81493;Laerm;70900;51.798;10.954;2023-06-26T02:15:30;43.23;37.23;54.72;;
81493;Laerm;70900;51.798;10.954;2023-06-26T02:17:55;46.49;36.29;57.95;;
81493;Laerm;70900;51.798;10.954;2023-06-26T02:20:20;47.94;38.38;57.87;;
81493;Laerm;70900;51.798;10.954;2023-06-26T02:22:46;44.92;36.59;57.50;;
81493;Laerm;70900;51.798;10.954;2023-06-26T02:25:11;48.31;35.41;65.70;;
81493;Laerm;70900;51.798;10.954;2023-06-26T02:27:38;46.51;33.80;57.70;;
81493;Laerm;70900;51.798;10.954;2023-06-26T02:30:04;49.06;34.69;62.76;;
81493;Laerm;70900;51.798;10.954;2023-06-26T02:32:29;46.83;34.54;59.40;;
81493;Laerm;70900;51.798;10.954;2023-06-26T02:34:55;43.93;34.01;59.58;;
81493;Laerm;70900;51.798;10.954;2023-06-26T02:37:20;42.30;35.59;53.49;;
81493;Laerm;70900;51.798;10.954;2023-06-26T02:39:45;39.74;34.18;47.35;;
81493;Laerm;70900;51.798;10.954;2023-06-26T02:42:11;39.18;33.65;46.28;;
81493;Laerm;70900;51.798;10.954;2023-06-26T02:44:36;40.73;34.05;49.41;;
81493;Laerm;70900;51.798;10.954;2023-06-26T02:47:02;40.29;35.06;49.49;;
81493;Laerm;70900;51.798;10.954;2023-06-26T02:49:28;40.12;33.95;49.59;;
81493;Laerm;70900;51.798;10.954;2023-06-26T02:51:54;39.78;33.52;48.47;;
81493;Laerm;70900;51.798;10.954;2023-06-26T02:54:19;38.33;33.25;47.60;;
81493;Laerm;70900;51.798;10.954;2023-06-26T02:56:44;37.89;33.49;46.39;;
81493;Laerm;70900;51.798;10.954;2023-06-26T02:59:10;38.45;32.97;45.54;;
81493;Laerm;70900;51.798;10.954;2023-06-26T03:01:35;42.55;33.94;58.47;;
81493;Laerm;70900;51.798;10.954;2023-06-26T03:04:02;39.70;33.82;52.69;;
81493;Laerm;70900;51.798;10.954;2023-06-26T03:06:27;39.79;34.75;48.29;;
81493;Laerm;70900;51.798;10.954;2023-06-26T03:08:53;39.90;34.37;49.54;;
81493;Laerm;70900;51.798;10.954;2023-06-26T03:11:18;45.29;34.52;61.24;;
81493;Laerm;70900;51.798;10.954;2023-06-26T03:13:44;45.67;35.36;55.30;;
81493;Laerm;70900;51.798;10.954;2023-06-26T03:16:10;46.55;34.87;56.56;;
81493;Laerm;70900;51.798;10.954;2023-06-26T03:18:36;54.72;35.78;70.52;;
81493;Laerm;70900;51.798;10.954;2023-06-26T03:21:01;47.44;36.31;59.74;;
81493;Laerm;70900;51.798;10.954;2023-06-26T03:23:27;41.11;37.02;49.39;;
81493;Laerm;70900;51.798;10.954;2023-06-26T03:25:52;46.58;36.86;57.85;;
81493;Laerm;70900;51.798;10.954;2023-06-26T03:28:18;50.74;37.56;64.50;;
81493;Laerm;70900;51.798;10.954;2023-06-26T03:30:43;52.53;38.05;64.80;;
81493;Laerm;70900;51.798;10.954;2023-06-26T03:33:09;50.69;37.37;65.72;;
81493;Laerm;70900;51.798;10.954;2023-06-26T03:35:34;47.20;37.36;62.95;;
81493;Laerm;70900;51.798;10.954;2023-06-26T03:38:00;49.31;36.89;63.57;;
81493;Laerm;70900;51.798;10.954;2023-06-26T03:40:26;44.03;36.78;55.36;;
81493;Laerm;70900;51.798;10.954;2023-06-26T03:42:52;41.64;37.30;54.76;;
81493;Laerm;70900;51.798;10.954;2023-06-26T03:45:18;49.63;35.80;65.08;;
81493;Laerm;70900;51.798;10.954;2023-06-26T03:47:44;50.40;36.71;64.27;;
81493;Laerm;70900;51.798;10.954;2023-06-26T03:50:12;49.31;37.84;64.23;;
81493;Laerm;70900;51.798;10.954;2023-06-26T03:52:37;48.74;37.34;61.77;;
81493;Laerm;70900;51.798;10.954;2023-06-26T03:55:03;58.97;36.39;74.97;;
81493;Laerm;70900;51.798;10.954;2023-06-26T03:57:28;56.10;37.62;71.87;;
81493;Laerm;70900;51.798;10.954;2023-06-26T03:59:54;52.93;36.35;67.82;;
81493;Laerm;70900;51.798;10.954;2023-06-26T04:02:19;49.03;36.30;65.26;;
81493;Laerm;70900;51.798;10.954;2023-06-26T04:04:45;52.01;38.79;64.17;;
81493;Laerm;70900;51.798;10.954;2023-06-26T04:07:10;49.29;37.81;61.29;;
81493;Laerm;70900;51.798;10.954;2023-06-26T04:09:36;52.37;36.85;68.35;;
81493;Laerm;70900;51.798;10.954;2023-06-26T04:12:02;45.14;36.90;57.11;;
81493;Laerm;70900;51.798;10.954;2023-06-26T04:14:27;46.18;37.93;59.27;;
81493;Laerm;70900;51.798;10.954;2023-06-26T04:16:53;52.88;36.99;69.86;;
81493;Laerm;70900;51.798;10.954;2023-06-26T04:19:18;51.48;38.43;64.54;;
81493;Laerm;70900;51.798;10.954;2023-06-26T04:21:44;46.52;39.59;58.57;;
81493;Laerm;70900;51.798;10.954;2023-06-26T04:24:09;50.34;38.61;66.38;;
81493;Laerm;70900;51.798;10.954;2023-06-26T04:26:35;44.89;37.83;59.53;;
81493;Laerm;70900;51.798;10.954;2023-06-26T04:29:00;52.58;39.07;65.85;;
81493;Laerm;70900;51.798;10.954;2023-06-26T04:31:26;52.70;39.19;64.18;;
81493;Laerm;70900;51.798;10.954;2023-06-26T04:33:51;58.44;39.47;74.03;;
81493;Laerm;70900;51.798;10.954;2023-06-26T04:36:19;49.21;37.40;66.01;;
81493;Laerm;70900;51.798;10.954;2023-06-26T04:38:45;57.75;39.83;71.32;;
81493;Laerm;70900;51.798;10.954;2023-06-26T04:41:10;47.38;38.75;61.92;;
81493;Laerm;70900;51.798;10.954;2023-06-26T04:43:36;45.57;39.18;57.54;;
81493;Laerm;70900;51.798;10.954;2023-06-26T04:46:04;53.82;39.43;68.19;;
81493;Laerm;70900;51.798;10.954;2023-06-26T04:48:31;59.37;39.25;76.94;;
81493;Laerm;70900;51.798;10.954;2023-06-26T04:50:56;53.99;39.18;69.07;;
81493;Laerm;70900;51.798;10.954;2023-06-26T04:53:24;56.23;39.26;68.57;;
81493;Laerm;70900;51.798;10.954;2023-06-26T04:55:50;54.48;40.92;65.51;;
81493;Laerm;70900;51.798;10.954;2023-06-26T04:58:15;55.88;39.11;69.31;;
81493;Laerm;70900;51.798;10.954;2023-06-26T05:00:41;54.04;40.03;67.46;;
81493;Laerm;70900;51.798;10.954;2023-06-26T05:03:07;54.83;40.72;66.17;;
81493;Laerm;70900;51.798;10.954;2023-06-26T05:05:33;57.30;39.51;71.67;;
81493;Laerm;70900;51.798;10.954;2023-06-26T05:08:01;55.05;40.15;68.63;;
81493;Laerm;70900;51.798;10.954;2023-06-26T05:10:38;54.44;40.08;70.45;;
81493;Laerm;70900;51.798;10.954;2023-06-26T05:13:04;57.37;39.48;68.58;;
81493;Laerm;70900;51.798;10.954;2023-06-26T05:15:29;53.91;39.99;68.18;;
81493;Laerm;70900;51.798;10.954;2023-06-26T05:17:55;52.87;37.68;67.65;;
81493;Laerm;70900;51.798;10.954;2023-06-26T05:20:20;54.50;40.67;65.43;;
81493;Laerm;70900;51.798;10.954;2023-06-26T05:22:46;60.66;45.76;75.33;;
81493;Laerm;70900;51.798;10.954;2023-06-26T05:25:11;59.42;39.65;69.49;;
81493;Laerm;70900;51.798;10.954;2023-06-26T05:27:38;60.08;42.51;69.34;;
81493;Laerm;70900;51.798;10.954;2023-06-26T05:30:04;56.85;40.19;65.65;;
81493;Laerm;70900;51.798;10.954;2023-06-26T05:32:29;56.79;45.39;70.18;;
81493;Laerm;70900;51.798;10.954;2023-06-26T05:34:55;60.06;45.41;70.46;;
81493;Laerm;70900;51.798;10.954;2023-06-26T05:37:22;52.54;38.79;65.01;;
81493;Laerm;70900;51.798;10.954;2023-06-26T05:39:48;52.45;39.71;64.68;;
81493;Laerm;70900;51.798;10.954;2023-06-26T05:42:13;57.25;39.29;72.43;;
81493;Laerm;70900;51.798;10.954;2023-06-26T05:44:39;59.36;38.94;76.53;;
81493;Laerm;70900;51.798;10.954;2023-06-26T05:47:05;55.47;40.33;68.10;;
81493;Laerm;70900;51.798;10.954;2023-06-26T05:49:30;52.34;40.77;65.51;;
81493;Laerm;70900;51.798;10.954;2023-06-26T05:51:56;53.91;41.61;66.21;;
81493;Laerm;70900;51.798;10.954;2023-06-26T05:54:23;55.89;40.35;67.03;;
81493;Laerm;70900;51.798;10.954;2023-06-26T05:56:49;55.65;39.97;68.89;;
81493;Laerm;70900;51.798;10.954;2023-06-26T05:59:15;55.78;39.93;71.34;;
81493;Laerm;70900;51.798;10.954;2023-06-26T06:01:41;52.65;40.95;66.94;;
81493;Laerm;70900;51.798;10.954;2023-06-26T06:04:07;54.22;42.15;64.97;;
81493;Laerm;70900;51.798;10.954;2023-06-26T06:06:32;55.43;39.80;66.35;;
81493;Laerm;70900;51.798;10.954;2023-06-26T06:08:58;56.91;39.05;66.53;;
81493;Laerm;70900;51.798;10.954;2023-06-26T06:11:23;52.59;40.57;65.05;;
81493;Laerm;70900;51.798;10.954;2023-06-26T06:13:49;49.93;39.48;61.79;;
81493;Laerm;70900;51.798;10.954;2023-06-26T06:16:14;54.28;40.00;64.51;;
81493;Laerm;70900;51.798;10.954;2023-06-26T06:18:40;56.63;42.42;66.82;;
81493;Laerm;70900;51.798;10.954;2023-06-26T06:21:05;56.90;39.98;68.96;;
81493;Laerm;70900;51.798;10.954;2023-06-26T06:23:31;52.79;39.69;65.81;;
81493;Laerm;70900;51.798;10.954;2023-06-26T06:25:56;49.84;39.55;64.72;;
81493;Laerm;70900;51.798;10.954;2023-06-26T06:28:22;50.13;38.76;63.50;;
81493;Laerm;70900;51.798;10.954;2023-06-26T06:30:48;52.58;38.15;65.16;;
81493;Laerm;70900;51.798;10.954;2023-06-26T06:33:13;60.06;41.04;75.91;;
81493;Laerm;70900;51.798;10.954;2023-06-26T06:35:39;57.60;39.94;71.25;;
81493;Laerm;70900;51.798;10.954;2023-06-26T06:38:06;47.74;37.74;60.79;;
81493;Laerm;70900;51.798;10.954;2023-06-26T06:40:32;55.19;39.36;65.93;;
81493;Laerm;70900;51.798;10.954;2023-06-26T06:42:57;45.01;37.70;66.02;;
81493;Laerm;70900;51.798;10.954;2023-06-26T06:45:23;45.02;37.95;59.82;;
81493;Laerm;70900;51.798;10.954;2023-06-26T06:47:48;53.31;40.87;65.16;;
81493;Laerm;70900;51.798;10.954;2023-06-26T06:50:14;52.22;39.25;65.84;;
81493;Laerm;70900;51.798;10.954;2023-06-26T06:52:42;49.25;38.55;66.10;;
81493;Laerm;70900;51.798;10.954;2023-06-26T06:55:07;55.35;37.33;65.69;;
81493;Laerm;70900;51.798;10.954;2023-06-26T06:57:37;52.97;39.05;67.26;;
81493;Laerm;70900;51.798;10.954;2023-06-26T07:00:04;60.48;38.15;75.24;;
81493;Laerm;70900;51.798;10.954;2023-06-26T07:02:30;54.58;37.20;66.43;;
81493;Laerm;70900;51.798;10.954;2023-06-26T07:04:55;61.11;38.99;75.71;;
81493;Laerm;70900;51.798;10.954;2023-06-26T07:07:21;55.76;38.12;78.35;;
81493;Laerm;70900;51.798;10.954;2023-06-26T07:09:46;56.58;39.13;69.17;;
81493;Laerm;70900;51.798;10.954;2023-06-26T07:12:12;57.00;40.49;70.12;;
81493;Laerm;70900;51.798;10.954;2023-06-26T07:14:38;63.31;38.73;81.50;;
81493;Laerm;70900;51.798;10.954;2023-06-26T07:17:04;51.87;39.81;64.46;;
81493;Laerm;70900;51.798;10.954;2023-06-26T07:19:29;56.23;40.65;69.57;;
81493;Laerm;70900;51.798;10.954;2023-06-26T07:21:54;57.06;41.48;72.95;;
81493;Laerm;70900;51.798;10.954;2023-06-26T07:24:20;50.37;38.48;64.27;;
81493;Laerm;70900;51.798;10.954;2023-06-26T07:26:46;52.23;38.69;66.88;;
81493;Laerm;70900;51.798;10.954;2023-06-26T07:29:12;58.14;41.08;78.04;;
81493;Laerm;70900;51.798;10.954;2023-06-26T07:31:37;54.16;41.99;67.55;;
81493;Laerm;70900;51.798;10.954;2023-06-26T07:34:02;55.13;38.67;73.69;;
81493;Laerm;70900;51.798;10.954;2023-06-26T07:36:28;56.28;41.30;68.35;;
81493;Laerm;70900;51.798;10.954;2023-06-26T07:38:53;54.88;41.97;68.34;;
81493;Laerm;70900;51.798;10.954;2023-06-26T07:41:19;55.48;42.66;65.57;;
81493;Laerm;70900;51.798;10.954;2023-06-26T07:43:44;61.50;43.63;77.02;;
81493;Laerm;70900;51.798;10.954;2023-06-26T07:46:10;55.75;42.33;69.24;;
81493;Laerm;70900;51.798;10.954;2023-06-26T07:48:35;58.01;42.38;68.07;;
81493;Laerm;70900;51.798;10.954;2023-06-26T07:51:00;55.70;43.58;68.07;;
81493;Laerm;70900;51.798;10.954;2023-06-26T07:53:26;57.69;41.25;78.45;;
81493;Laerm;70900;51.798;10.954;2023-06-26T07:55:51;54.90;41.04;66.76;;
81493;Laerm;70900;51.798;10.954;2023-06-26T07:58:17;57.05;43.37;66.17;;
81493;Laerm;70900;51.798;10.954;2023-06-26T08:00:43;53.29;42.11;66.74;;
81493;Laerm;70900;51.798;10.954;2023-06-26T08:03:08;58.38;42.40;67.34;;
81493;Laerm;70900;51.798;10.954;2023-06-26T08:05:34;48.43;41.01;61.01;;
81493;Laerm;70900;51.798;10.954;2023-06-26T08:07:59;58.71;42.80;78.00;;
81493;Laerm;70900;51.798;10.954;2023-06-26T08:10:27;54.90;40.97;73.81;;
81493;Laerm;70900;51.798;10.954;2023-06-26T08:12:52;55.74;40.82;68.53;;
81493;Laerm;70900;51.798;10.954;2023-06-26T08:15:17;60.09;38.77;72.29;;
81493;Laerm;70900;51.798;10.954;2023-06-26T08:17:43;57.64;41.89;65.90;;
81493;Laerm;70900;51.798;10.954;2023-06-26T08:20:09;55.51;41.88;65.39;;
81493;Laerm;70900;51.798;10.954;2023-06-26T08:22:34;51.61;39.62;69.73;;
81493;Laerm;70900;51.798;10.954;2023-06-26T08:25:00;57.34;40.64;69.64;;
81493;Laerm;70900;51.798;10.954;2023-06-26T08:27:25;53.13;41.61;65.67;;
81493;Laerm;70900;51.798;10.954;2023-06-26T08:29:51;53.94;39.55;64.86;;
81493;Laerm;70900;51.798;10.954;2023-06-26T08:32:16;57.40;39.68;68.89;;
81493;Laerm;70900;51.798;10.954;2023-06-26T08:34:41;58.73;40.35;72.18;;
81493;Laerm;70900;51.798;10.954;2023-06-26T08:37:07;54.18;40.67;70.08;;
81493;Laerm;70900;51.798;10.954;2023-06-26T08:39:34;55.19;41.20;68.20;;
81493;Laerm;70900;51.798;10.954;2023-06-26T08:41:59;56.63;40.28;66.46;;
81493;Laerm;70900;51.798;10.954;2023-06-26T08:44:25;63.13;40.84;78.96;;
81493;Laerm;70900;51.798;10.954;2023-06-26T08:46:51;51.74;38.03;65.22;;
81493;Laerm;70900;51.798;10.954;2023-06-26T08:49:37;65.82;51.57;71.10;;
81493;Laerm;70900;51.798;10.954;2023-06-26T08:52:10;58.75;52.93;62.04;;
81493;Laerm;70900;51.798;10.954;2023-06-26T08:54:40;41.03;38.94;45.21;;
81493;Laerm;70900;51.798;10.954;2023-06-26T09:26:15;54.25;43.56;62.11;;
81493;Laerm;70900;51.798;10.954;2023-06-26T09:28:41;55.32;40.20;66.29;;
81493;Laerm;70900;51.798;10.954;2023-06-26T09:31:07;54.41;40.44;66.78;;
81493;Laerm;70900;51.798;10.954;2023-06-26T09:33:34;56.70;38.33;73.95;;
81493;Laerm;70900;51.798;10.954;2023-06-26T09:36:01;59.70;44.41;71.84;;
81493;Laerm;70900;51.798;10.954;2023-06-26T09:38:26;60.97;43.20;77.08;;
81493;Laerm;70900;51.798;10.954;2023-06-26T09:40:52;53.84;41.02;67.34;;
81493;Laerm;70900;51.798;10.954;2023-06-26T09:43:17;57.25;39.65;69.88;;
81493;Laerm;70900;51.798;10.954;2023-06-26T09:45:44;55.71;41.53;67.74;;
81493;Laerm;70900;51.798;10.954;2023-06-26T09:48:09;56.66;38.46;65.42;;
81493;Laerm;70900;51.798;10.954;2023-06-26T09:50:35;54.77;38.48;67.16;;
81493;Laerm;70900;51.798;10.954;2023-06-26T09:53:09;51.72;36.67;62.87;;
81493;Laerm;70900;51.798;10.954;2023-06-26T09:55:35;51.35;38.04;69.07;;
81493;Laerm;70900;51.798;10.954;2023-06-26T09:58:01;58.19;38.33;72.14;;
81493;Laerm;70900;51.798;10.954;2023-06-26T10:00:27;56.73;40.24;69.17;;
81493;Laerm;70900;51.798;10.954;2023-06-26T10:02:53;49.82;37.45;62.66;;
81493;Laerm;70900;51.798;10.954;2023-06-26T10:05:18;55.32;39.95;69.15;;
81493;Laerm;70900;51.798;10.954;2023-06-26T10:07:44;56.91;38.40;71.59;;
81493;Laerm;70900;51.798;10.954;2023-06-26T10:10:10;54.41;36.64;65.52;;
81493;Laerm;70900;51.798;10.954;2023-06-26T10:12:36;50.64;35.68;63.15;;
81493;Laerm;70900;51.798;10.954;2023-06-26T10:15:02;54.15;34.78;68.30;;
81493;Laerm;70900;51.798;10.954;2023-06-26T10:17:30;48.42;34.38;60.84;;
81493;Laerm;70900;51.798;10.954;2023-06-26T10:19:58;54.41;35.38;63.76;;
81493;Laerm;70900;51.798;10.954;2023-06-26T10:22:27;59.29;37.95;75.13;;
81493;Laerm;70900;51.798;10.954;2023-06-26T10:24:55;46.82;36.98;58.68;;
81493;Laerm;70900;51.798;10.954;2023-06-26T10:27:23;52.72;37.67;66.16;;
81493;Laerm;70900;51.798;10.954;2023-06-26T10:29:52;61.12;35.70;82.57;;
81493;Laerm;70900;51.798;10.954;2023-06-26T10:32:21;52.69;36.56;65.70;;
81493;Laerm;70900;51.798;10.954;2023-06-26T10:34:48;56.07;37.70;73.27;;
81493;Laerm;70900;51.798;10.954;2023-06-26T10:37:14;50.45;35.15;62.30;;
81493;Laerm;70900;51.798;10.954;2023-06-26T10:42:12;47.18;37.70;60.27;;
81493;Laerm;70900;51.798;10.954;2023-06-26T10:44:41;62.47;36.36;79.91;;
81493;Laerm;70900;51.798;10.954;2023-06-26T10:47:07;61.24;36.74;73.17;;
81493;Laerm;70900;51.798;10.954;2023-06-26T10:49:34;55.23;36.85;65.87;;
81493;Laerm;70900;51.798;10.954;2023-06-26T10:52:00;60.00;36.29;67.07;;
81493;Laerm;70900;51.798;10.954;2023-06-26T10:54:28;62.85;38.73;81.11;;
81493;Laerm;70900;51.798;10.954;2023-06-26T10:56:54;55.75;36.17;67.67;;
81493;Laerm;70900;51.798;10.954;2023-06-26T10:59:23;56.06;37.29;67.21;;
81493;Laerm;70900;51.798;10.954;2023-06-26T11:01:55;54.47;37.14;68.09;;
81493;Laerm;70900;51.798;10.954;2023-06-26T11:04:40;52.87;36.19;67.02;;
81493;Laerm;70900;51.798;10.954;2023-06-26T11:07:15;54.29;37.69;67.18;;
81493;Laerm;70900;51.798;10.954;2023-06-26T11:10:00;54.28;49.22;64.20;;
81493;Laerm;70900;51.798;10.954;2023-06-26T11:12:38;60.02;37.14;73.21;;
81493;Laerm;70900;51.798;10.954;2023-06-26T11:15:10;54.11;36.66;66.95;;
81493;Laerm;70900;51.798;10.954;2023-06-26T11:17:36;59.47;39.11;76.39;;
81493;Laerm;70900;51.798;10.954;2023-06-26T11:20:02;59.38;37.63;74.13;;
81493;Laerm;70900;51.798;10.954;2023-06-26T11:22:29;52.48;38.34;66.80;;
81493;Laerm;70900;51.798;10.954;2023-06-26T11:24:55;51.98;39.17;63.88;;
81493;Laerm;70900;51.798;10.954;2023-06-26T11:27:24;53.31;37.86;65.83;;
81493;Laerm;70900;51.798;10.954;2023-06-26T11:29:49;55.77;39.15;67.70;;
81493;Laerm;70900;51.798;10.954;2023-06-26T11:32:15;59.72;37.85;77.64;;
81493;Laerm;70900;51.798;10.954;2023-06-26T11:34:40;60.19;38.48;78.10;;
81493;Laerm;70900;51.798;10.954;2023-06-26T11:37:08;57.96;37.54;71.75;;
81493;Laerm;70900;51.798;10.954;2023-06-26T11:39:33;55.79;37.47;73.51;;
81493;Laerm;70900;51.798;10.954;2023-06-26T11:41:59;55.23;40.13;70.06;;
81493;Laerm;70900;51.798;10.954;2023-06-26T11:44:24;56.43;40.90;70.01;;
81493;Laerm;70900;51.798;10.954;2023-06-26T11:46:54;53.38;37.96;65.99;;
81493;Laerm;70900;51.798;10.954;2023-06-26T11:49:20;45.08;38.72;60.58;;
81493;Laerm;70900;51.798;10.954;2023-06-26T11:51:48;52.92;38.78;64.40;;
81493;Laerm;70900;51.798;10.954;2023-06-26T11:54:13;57.89;44.56;71.99;;
81493;Laerm;70900;51.798;10.954;2023-06-26T11:56:39;54.30;41.82;65.41;;
81493;Laerm;70900;51.798;10.954;2023-06-26T11:59:06;51.15;40.78;60.40;;
81493;Laerm;70900;51.798;10.954;2023-06-26T12:01:37;55.93;43.43;65.29;;
81493;Laerm;70900;51.798;10.954;2023-06-26T12:04:04;51.53;41.69;62.83;;
81493;Laerm;70900;51.798;10.954;2023-06-26T12:06:33;62.89;42.51;81.83;;
81493;Laerm;70900;51.798;10.954;2023-06-26T12:09:00;52.24;43.70;62.98;;
81493;Laerm;70900;51.798;10.954;2023-06-26T12:11:27;54.20;43.45;66.92;;
81493;Laerm;70900;51.798;10.954;2023-06-26T12:13:54;60.77;43.45;81.37;;
81493;Laerm;70900;51.798;10.954;2023-06-26T12:16:19;52.97;44.98;63.14;;
81493;Laerm;70900;51.798;10.954;2023-06-26T12:18:45;54.56;41.20;66.97;;
81493;Laerm;70900;51.798;10.954;2023-06-26T12:24:00;54.14;44.30;65.70;;
81493;Laerm;70900;51.798;10.954;2023-06-26T12:26:25;60.77;43.83;76.29;;
81493;Laerm;70900;51.798;10.954;2023-06-26T12:28:51;50.05;41.16;63.33;;
81493;Laerm;70900;51.798;10.954;2023-06-26T12:31:17;52.33;43.04;63.95;;
81493;Laerm;70900;51.798;10.954;2023-06-26T12:33:45;56.74;46.91;71.40;;
81493;Laerm;70900;51.798;10.954;2023-06-26T12:36:11;58.41;48.39;68.46;;
81493;Laerm;70900;51.798;10.954;2023-06-26T12:38:37;57.69;48.36;66.98;;
81493;Laerm;70900;51.798;10.954;2023-06-26T12:41:02;59.11;49.94;71.39;;
81493;Laerm;70900;51.798;10.954;2023-06-26T12:43:28;59.48;51.23;68.38;;
81493;Laerm;70900;51.798;10.954;2023-06-26T12:45:54;60.52;51.17;72.09;;
81493;Laerm;70900;51.798;10.954;2023-06-26T12:48:19;66.46;50.70;75.82;;
81493;Laerm;70900;51.798;10.954;2023-06-26T12:50:45;63.44;53.65;72.34;;
81493;Laerm;70900;51.798;10.954;2023-06-26T12:53:10;61.65;50.01;73.41;;
81493;Laerm;70900;51.798;10.954;2023-06-26T12:55:36;62.69;50.39;74.13;;
81493;Laerm;70900;51.798;10.954;2023-06-26T12:58:01;58.77;48.56;72.55;;
81493;Laerm;70900;51.798;10.954;2023-06-26T13:00:27;60.12;46.06;72.86;;
81493;Laerm;70900;51.798;10.954;2023-06-26T13:02:53;59.29;42.16;73.99;;
81493;Laerm;70900;51.798;10.954;2023-06-26T13:05:18;62.00;41.01;72.42;;
81493;Laerm;70900;51.798;10.954;2023-06-26T13:07:44;58.07;41.62;72.69;;
81493;Laerm;70900;51.798;10.954;2023-06-26T13:10:09;59.75;39.82;74.88;;
81493;Laerm;70900;51.798;10.954;2023-06-26T13:12:35;60.05;41.08;73.03;;
81493;Laerm;70900;51.798;10.954;2023-06-26T13:15:00;57.84;39.03;68.57;;
81493;Laerm;70900;51.798;10.954;2023-06-26T13:17:26;58.98;40.18;70.21;;
81493;Laerm;70900;51.798;10.954;2023-06-26T13:19:51;58.76;38.28;75.86;;
81493;Laerm;70900;51.798;10.954;2023-06-26T13:22:17;54.09;39.06;69.94;;
81493;Laerm;70900;51.798;10.954;2023-06-26T13:24:42;61.48;47.35;74.17;;
81493;Laerm;70900;51.798;10.954;2023-06-26T13:27:07;59.88;43.16;74.76;;
81493;Laerm;70900;51.798;10.954;2023-06-26T13:29:33;56.63;38.75;70.12;;
81493;Laerm;70900;51.798;10.954;2023-06-26T13:31:58;60.80;39.05;77.75;;
81493;Laerm;70900;51.798;10.954;2023-06-26T13:34:24;57.90;40.48;74.81;;
81493;Laerm;70900;51.798;10.954;2023-06-26T13:36:52;55.08;39.03;64.73;;
81493;Laerm;70900;51.798;10.954;2023-06-26T13:39:18;57.62;40.03;71.77;;
81493;Laerm;70900;51.798;10.954;2023-06-26T13:41:44;46.79;38.82;64.37;;
81493;Laerm;70900;51.798;10.954;2023-06-26T13:44:09;56.29;38.91;73.13;;
81493;Laerm;70900;51.798;10.954;2023-06-26T13:46:35;55.87;40.63;66.66;;
81493;Laerm;70900;51.798;10.954;2023-06-26T13:49:00;55.49;39.11;68.96;;
81493;Laerm;70900;51.798;10.954;2023-06-26T13:51:26;56.20;41.94;67.12;;
81493;Laerm;70900;51.798;10.954;2023-06-26T13:53:51;56.57;40.77;69.39;;
81493;Laerm;70900;51.798;10.954;2023-06-26T13:56:16;56.15;41.60;70.03;;
81493;Laerm;70900;51.798;10.954;2023-06-26T13:58:42;58.02;41.18;72.15;;
81493;Laerm;70900;51.798;10.954;2023-06-26T14:01:07;55.29;40.71;66.84;;
81493;Laerm;70900;51.798;10.954;2023-06-26T14:03:33;55.14;40.28;73.49;;
81493;Laerm;70900;51.798;10.954;2023-06-26T14:05:58;52.78;40.08;63.71;;